Time;durP1;ratioP1;P1;durP2;ratioP2;P2;SDS_P1;SDS_P2;PMS_P1;PMS_P2;Temp;Humidity;BMP_temperature;BMP_pressure;BME280_temperature;BME280_humidity;BME280_pressure;Samples;Min_cycle;Max_cycle;Signal;HPM_P1;HPM_P2
2023/03/31 00:00:45;;;;;;;;;;;;;;;21.71;21.03;97943.50;4960766;28;1988;-74
2023/03/31 00:03:11;;;;;;;;;;;;;;;21.71;20.90;97945.50;4938544;29;1075;-74
2023/03/31 00:05:36;;;;;;;;;;;;;;;22.17;20.23;97944.22;4955182;29;952;-73
2023/03/31 00:08:02;;;;;;;;;;;;;;;22.08;20.42;97935.56;4955149;29;1016;-73
2023/03/31 00:10:32;;;;;;;;;;;;;;;21.73;20.88;97931.72;4953900;29;1996;-73
2023/03/31 00:12:58;;;;;;;;;;;;;;;21.78;20.75;97934.78;4954905;29;1135;-73
2023/03/31 00:15:23;;;;;;;;;;;;;;;21.67;21.00;97922.97;4955319;29;1078;-73
2023/03/31 00:17:49;;;;;;;;;;;;;;;21.94;20.66;97921.81;4981564;28;897;-74
2023/03/31 00:20:14;;;;;;;;;;;;;;;22.14;20.67;97919.63;4993666;28;1896;-74
2023/03/31 00:22:46;;;;;;;;;;;;;;;22.07;20.38;97908.44;4994662;28;865;-74
2023/03/31 00:25:12;;;;;;;;;;;;;;;21.76;21.05;97920.28;4996225;28;912;-73
2023/03/31 00:27:40;;;;;;;;;;;;;;;21.79;20.73;97913.72;4978536;28;1869;-74
2023/03/31 00:30:07;;;;;;;;;;;;;;;21.82;20.88;97912.84;4971663;28;2314;-74
2023/03/31 00:32:32;;;;;;;;;;;;;;;22.00;20.72;97906.63;4976376;28;1918;-73
2023/03/31 00:34:58;;;;;;;;;;;;;;;22.02;20.69;97903.34;4976247;28;951;-73
2023/03/31 00:37:23;;;;;;;;;;;;;;;21.77;21.11;97893.56;4974536;28;1791;-74
2023/03/31 00:39:49;;;;;;;;;;;;;;;21.67;21.24;97900.31;4990804;28;1650;-74
2023/03/31 00:42:15;;;;;;;;;;;;;;;21.84;20.76;97896.16;4991507;28;1260;-74
2023/03/31 00:44:59;;;;;;;;;;;;;;;21.83;20.83;97897.41;4954600;29;1299;-73
2023/03/31 00:47:24;;;;;;;;;;;;;;;22.02;20.53;97897.66;4954436;29;1039;-73
2023/03/31 00:49:50;;;;;;;;;;;;;;;22.04;20.66;97892.38;4912264;29;1815;-74
2023/03/31 00:52:36;;;;;;;;;;;;;;;22.20;20.49;97897.19;4882377;29;1993;-74
2023/03/31 00:55:09;;;;;;;;;;;;;;;21.68;20.97;97884.91;4882185;29;1036;-73
2023/03/31 00:57:38;;;;;;;;;;;;;;;21.79;20.94;97873.28;4866622;29;1201;-74
2023/03/31 01:00:25;;;;;;;;;;;;;;;21.85;21.08;97871.47;4881887;29;1955;-74
2023/03/31 01:02:54;;;;;;;;;;;;;;;22.15;20.59;97875.84;4897117;29;1215;-74
2023/03/31 01:05:24;;;;;;;;;;;;;;;22.29;20.58;97866.13;4898927;29;1622;-74
2023/03/31 01:07:50;;;;;;;;;;;;;;;22.12;20.44;97859.75;4900719;29;1385;-74
2023/03/31 01:10:16;;;;;;;;;;;;;;;21.82;20.88;97850.53;4899739;29;1668;-73
2023/03/31 01:12:43;;;;;;;;;;;;;;;21.78;21.09;97852.66;4884876;29;1907;-73
2023/03/31 01:15:08;;;;;;;;;;;;;;;22.21;20.49;97854.22;4903694;29;1385;-73
2023/03/31 01:17:34;;;;;;;;;;;;;;;22.08;20.62;97856.22;4919927;29;1108;-74
2023/03/31 01:20:18;;;;;;;;;;;;;;;21.92;20.96;97851.44;4906502;29;1739;-74
2023/03/31 01:22:48;;;;;;;;;;;;;;;21.90;20.77;97853.13;4937230;29;1185;-74
2023/03/31 01:25:37;;;;;;;;;;;;;;;21.72;21.09;97850.84;4957889;29;1106;-73
2023/03/31 01:28:21;;;;;;;;;;;;;;;21.90;20.96;97836.13;4957692;29;1071;-74
2023/03/31 01:30:53;;;;;;;;;;;;;;;22.04;21.04;97844.19;4967380;28;1917;-73
2023/03/31 01:33:19;;;;;;;;;;;;;;;22.02;20.60;97836.16;4919065;29;1431;-74
2023/03/31 01:36:03;;;;;;;;;;;;;;;21.99;20.61;97836.25;4919744;29;920;-74
2023/03/31 01:38:32;;;;;;;;;;;;;;;21.74;21.29;97832.13;4919560;29;965;-73
2023/03/31 01:41:04;;;;;;;;;;;;;;;21.72;21.26;97828.97;4941250;29;1936;-74
2023/03/31 01:43:34;;;;;;;;;;;;;;;21.90;20.81;97821.97;4919323;29;1232;-73
2023/03/31 01:46:00;;;;;;;;;;;;;;;22.03;20.57;97815.06;4919154;29;969;-74
2023/03/31 01:48:28;;;;;;;;;;;;;;;21.79;21.16;97817.41;4887919;29;1212;-74
2023/03/31 01:50:55;;;;;;;;;;;;;;;21.79;20.89;97816.63;4902446;29;1973;-73
2023/03/31 01:53:27;;;;;;;;;;;;;;;21.76;20.98;97818.34;4887816;29;1169;-73
2023/03/31 01:55:59;;;;;;;;;;;;;;;21.93;20.80;97819.03;4903523;29;995;-73
2023/03/31 01:58:31;;;;;;;;;;;;;;;21.85;21.21;97814.81;4903635;29;1218;-73
2023/03/31 02:01:00;;;;;;;;;;;;;;;21.87;20.85;97803.06;4902148;29;2021;-73
2023/03/31 02:03:34;;;;;;;;;;;;;;;21.80;21.25;97802.00;4905644;29;1232;-73
2023/03/31 02:06:02;;;;;;;;;;;;;;;21.98;20.78;97800.69;4922097;29;1055;-73
2023/03/31 02:08:28;;;;;;;;;;;;;;;21.75;20.97;97796.91;4906412;29;938;-73
2023/03/31 02:10:57;;;;;;;;;;;;;;;21.97;20.77;97788.56;4925648;29;1915;-73
2023/03/31 02:13:23;;;;;;;;;;;;;;;22.09;20.60;97767.13;4885245;29;1218;-73
2023/03/31 02:15:52;;;;;;;;;;;;;;;21.94;20.64;97772.47;4937625;29;1059;-74
2023/03/31 02:18:18;;;;;;;;;;;;;;;21.71;21.18;97769.94;4906316;29;1078;-73
2023/03/31 02:20:45;;;;;;;;;;;;;;;21.72;21.01;97765.88;4905509;29;1932;-73
2023/03/31 02:23:12;;;;;;;;;;;;;;;21.87;21.13;97755.69;4906305;29;1189;-74
2023/03/31 02:25:41;;;;;;;;;;;;;;;21.94;20.83;97757.50;4905463;29;1494;-73
2023/03/31 02:28:07;;;;;;;;;;;;;;;21.75;21.30;97757.25;4921397;29;1675;-74
2023/03/31 02:30:36;;;;;;;;;;;;;;;21.70;21.19;97755.00;4880365;29;1898;-74
2023/03/31 02:33:03;;;;;;;;;;;;;;;21.64;21.40;97756.81;4896201;29;1284;-73
2023/03/31 02:35:29;;;;;;;;;;;;;;;21.79;21.23;97748.66;4881055;29;1500;-74
2023/03/31 02:37:57;;;;;;;;;;;;;;;22.00;20.76;97747.19;4896519;29;1311;-73
2023/03/31 02:40:26;;;;;;;;;;;;;;;22.13;20.77;97748.00;4896027;29;1910;-73
2023/03/31 02:42:52;;;;;;;;;;;;;;;21.70;21.22;97752.16;4880402;29;1142;-74
2023/03/31 02:45:36;;;;;;;;;;;;;;;21.78;21.26;97747.88;4915062;29;1896;-73
2023/03/31 02:48:01;;;;;;;;;;;;;;;21.51;21.40;97747.50;4921095;29;1288;-74
2023/03/31 02:50:28;;;;;;;;;;;;;;;22.05;20.97;97738.13;4920497;29;1975;-73
2023/03/31 02:52:54;;;;;;;;;;;;;;;22.15;20.87;97744.72;4933353;29;1851;-73
2023/03/31 02:55:46;;;;;;;;;;;;;;;21.67;21.24;97744.59;4935225;29;1900;-73
2023/03/31 02:58:18;;;;;;;;;;;;;;;21.76;21.37;97733.38;4897741;29;1809;-74
2023/03/31 03:01:00;;;;;;;;;;;;;;;21.80;21.06;97736.88;4880210;29;1091;-74
2023/03/31 03:03:32;;;;;;;;;;;;;;;22.16;20.68;97730.09;4848051;29;1664;-73
2023/03/31 03:06:04;;;;;;;;;;;;;;;22.01;21.02;97726.91;4849436;29;1087;-73
2023/03/31 03:08:57;;;;;;;;;;;;;;;21.75;21.49;97728.16;4882680;29;897;-73
2023/03/31 03:11:30;;;;;;;;;;;;;;;21.71;21.19;97722.63;4883211;29;1907;-73
2023/03/31 03:14:00;;;;;;;;;;;;;;;21.66;21.39;97728.84;4882661;29;2217;-73
2023/03/31 03:16:29;;;;;;;;;;;;;;;21.99;20.96;97717.28;4882593;29;1874;-74
2023/03/31 03:19:01;;;;;;;;;;;;;;;22.10;20.88;97714.88;4879951;29;1254;-73
2023/03/31 03:21:27;;;;;;;;;;;;;;;21.67;21.20;97707.78;4864666;29;965;-73
2023/03/31 03:23:53;;;;;;;;;;;;;;;21.74;21.45;97701.88;4864010;29;2020;-73
2023/03/31 03:26:23;;;;;;;;;;;;;;;21.45;21.80;97715.31;4879495;29;1374;-73
2023/03/31 03:28:49;;;;;;;;;;;;;;;21.82;21.13;97708.13;4873397;29;1490;-73
2023/03/31 03:31:15;;;;;;;;;;;;;;;22.07;21.00;97704.44;4861197;29;1895;-74
2023/03/31 03:33:41;;;;;;;;;;;;;;;22.15;20.87;97700.16;4873017;29;1969;-74
2023/03/31 03:36:07;;;;;;;;;;;;;;;21.87;21.35;97704.72;4882010;29;1067;-73
2023/03/31 03:38:32;;;;;;;;;;;;;;;21.70;21.17;97712.50;4881726;29;919;-74
2023/03/31 03:40:58;;;;;;;;;;;;;;;21.64;21.41;97705.84;4898301;29;972;-73
2023/03/31 03:43:23;;;;;;;;;;;;;;;21.90;21.27;97708.66;4897442;29;1979;-73
2023/03/31 03:45:49;;;;;;;;;;;;;;;21.97;20.97;97702.78;4898476;29;972;-73
2023/03/31 03:48:15;;;;;;;;;;;;;;;21.84;21.27;97695.06;4898473;29;998;-73
2023/03/31 03:50:41;;;;;;;;;;;;;;;21.85;21.22;97695.84;4913119;29;1907;-74
2023/03/31 03:53:06;;;;;;;;;;;;;;;21.69;21.46;97699.59;4935128;29;2029;-73
2023/03/31 03:55:32;;;;;;;;;;;;;;;22.14;20.99;97694.97;4920493;29;1020;-73
2023/03/31 03:57:58;;;;;;;;;;;;;;;22.21;20.78;97701.16;4920633;29;983;-73
2023/03/31 04:00:24;;;;;;;;;;;;;;;22.17;20.81;97699.69;4904356;29;1171;-73
2023/03/31 04:02:49;;;;;;;;;;;;;;;21.85;21.50;97688.16;4935952;29;1081;-73
2023/03/31 04:05:15;;;;;;;;;;;;;;;21.84;21.25;97685.78;4921563;29;1208;-73
2023/03/31 04:07:40;;;;;;;;;;;;;;;21.59;21.88;97681.72;4938944;29;929;-74
2023/03/31 04:10:06;;;;;;;;;;;;;;;22.25;20.76;97684.84;4923198;29;946;-73
2023/03/31 04:12:35;;;;;;;;;;;;;;;22.42;20.58;97671.28;4938906;29;1986;-74
2023/03/31 04:15:00;;;;;;;;;;;;;;;21.76;21.48;97688.06;4955033;29;1006;-73
2023/03/31 04:17:32;;;;;;;;;;;;;;;21.82;21.19;97680.59;4939015;29;1070;-73
2023/03/31 04:20:00;;;;;;;;;;;;;;;21.67;21.65;97682.28;4923922;29;981;-73
2023/03/31 04:22:33;;;;;;;;;;;;;;;22.15;20.90;97686.00;4936636;29;972;-73
2023/03/31 04:25:00;;;;;;;;;;;;;;;22.17;20.78;97680.66;4956233;29;896;-73
2023/03/31 04:27:29;;;;;;;;;;;;;;;21.93;21.24;97668.91;4956540;29;931;-74
2023/03/31 04:29:55;;;;;;;;;;;;;;;21.76;21.48;97673.91;4940012;29;943;-73
2023/03/31 04:32:21;;;;;;;;;;;;;;;21.65;21.48;97670.59;4923262;29;1911;-73
2023/03/31 04:34:47;;;;;;;;;;;;;;;21.92;21.31;97673.00;4956128;29;965;-74
2023/03/31 04:37:12;;;;;;;;;;;;;;;21.88;21.26;97671.53;4955715;29;935;-73
2023/03/31 04:39:38;;;;;;;;;;;;;;;22.07;21.00;97676.09;4935694;29;934;-73
2023/03/31 04:42:04;;;;;;;;;;;;;;;21.80;21.29;97677.41;4935977;29;997;-74
2023/03/31 04:44:29;;;;;;;;;;;;;;;21.88;21.35;97671.53;4935460;29;950;-73
2023/03/31 04:46:55;;;;;;;;;;;;;;;21.78;21.26;97667.78;4935674;29;1201;-74
2023/03/31 04:49:20;;;;;;;;;;;;;;;22.09;21.02;97677.25;4921637;29;932;-74
2023/03/31 04:51:46;;;;;;;;;;;;;;;22.15;21.24;97666.16;4939297;29;1914;-74
2023/03/31 04:54:11;;;;;;;;;;;;;;;22.34;20.78;97661.47;4923647;29;929;-73
2023/03/31 04:56:37;;;;;;;;;;;;;;;21.78;21.34;97668.56;4923648;29;1292;-73
2023/03/31 04:59:03;;;;;;;;;;;;;;;21.69;21.53;97665.63;4923174;29;1031;-73
2023/03/31 05:01:31;;;;;;;;;;;;;;;21.96;21.23;97667.19;4923703;29;972;-73
2023/03/31 05:03:57;;;;;;;;;;;;;;;21.98;21.16;97659.03;4929884;29;1204;-74
2023/03/31 05:06:23;;;;;;;;;;;;;;;22.17;20.96;97646.66;4910628;29;1018;-73
2023/03/31 05:08:48;;;;;;;;;;;;;;;21.80;21.30;97637.75;4942134;29;950;-73
2023/03/31 05:11:14;;;;;;;;;;;;;;;21.69;21.69;97648.63;4968957;28;1902;-73
2023/03/31 05:13:40;;;;;;;;;;;;;;;21.71;21.51;97639.69;4962560;28;1189;-74
2023/03/31 05:16:09;;;;;;;;;;;;;;;22.26;20.81;97641.06;4978501;28;954;-73
2023/03/31 05:18:35;;;;;;;;;;;;;;;22.27;20.94;97641.88;4946937;28;1200;-73
2023/03/31 05:21:21;;;;;;;;;;;;;;;21.77;21.46;97633.00;4962500;28;1150;-73
2023/03/31 05:23:46;;;;;;;;;;;;;;;21.81;21.26;97622.38;4977987;28;1060;-73
2023/03/31 05:26:12;;;;;;;;;;;;;;;21.59;21.79;97627.13;4945397;28;1086;-74
2023/03/31 05:28:38;;;;;;;;;;;;;;;21.91;21.61;97619.59;4978617;28;902;-73
2023/03/31 05:31:03;;;;;;;;;;;;;;;21.87;21.54;97608.41;4978572;28;1957;-73
2023/03/31 05:33:29;;;;;;;;;;;;;;;21.87;21.68;97618.94;4962376;28;1264;-73
2023/03/31 05:35:55;;;;;;;;;;;;;;;21.43;21.98;97624.41;4962239;28;1133;-74
2023/03/31 05:38:20;;;;;;;;;;;;;;;21.71;21.88;97623.50;4978335;28;898;-74
2023/03/31 05:40:46;;;;;;;;;;;;;;;21.91;21.27;97626.06;4962143;28;1135;-73
2023/03/31 05:43:12;;;;;;;;;;;;;;;22.17;21.12;97621.16;4979604;28;959;-74
2023/03/31 05:45:37;;;;;;;;;;;;;;;22.16;20.99;97619.56;4977987;28;917;-73
2023/03/31 05:48:03;;;;;;;;;;;;;;;21.87;21.51;97610.47;4961756;28;1034;-74
2023/03/31 05:50:29;;;;;;;;;;;;;;;21.82;21.71;97614.66;4977817;28;846;-73
2023/03/31 05:52:54;;;;;;;;;;;;;;;21.90;21.43;97609.53;4978321;28;1979;-73
2023/03/31 05:55:20;;;;;;;;;;;;;;;22.10;21.37;97615.72;4944928;28;1144;-73
2023/03/31 05:57:45;;;;;;;;;;;;;;;21.94;21.45;97613.03;4979130;28;962;-73
2023/03/31 06:00:11;;;;;;;;;;;;;;;22.12;21.14;97618.91;4977898;28;924;-73
2023/03/31 06:02:37;;;;;;;;;;;;;;;21.73;21.52;97620.22;4961021;28;1027;-73
2023/03/31 06:05:03;;;;;;;;;;;;;;;21.82;21.52;97623.94;4945677;28;1493;-73
2023/03/31 06:07:28;;;;;;;;;;;;;;;21.64;22.08;97623.72;4978989;28;910;-73
2023/03/31 06:09:54;;;;;;;;;;;;;;;21.93;21.38;97623.56;4961671;28;1068;-73
2023/03/31 06:12:20;;;;;;;;;;;;;;;21.99;21.56;97632.28;4978763;28;1918;-73
2023/03/31 06:14:45;;;;;;;;;;;;;;;21.64;21.59;97617.28;4978739;28;926;-73
2023/03/31 06:17:11;;;;;;;;;;;;;;;21.84;21.79;97621.44;4978975;28;931;-73
2023/03/31 06:19:37;;;;;;;;;;;;;;;21.81;21.78;97613.88;4977416;28;1116;-74
2023/03/31 06:22:02;;;;;;;;;;;;;;;21.93;21.51;97611.47;4978906;28;890;-73
2023/03/31 06:24:28;;;;;;;;;;;;;;;22.00;21.55;97608.38;4960428;28;993;-73
2023/03/31 06:26:53;;;;;;;;;;;;;;;22.26;21.34;97618.41;4978326;28;896;-74
2023/03/31 06:29:19;;;;;;;;;;;;;;;21.92;21.38;97604.22;4961297;28;1236;-73
2023/03/31 06:31:45;;;;;;;;;;;;;;;21.88;21.79;97609.22;4977293;28;1975;-74
2023/03/31 06:34:10;;;;;;;;;;;;;;;21.92;21.42;97609.88;4940636;29;1079;-73
2023/03/31 06:36:36;;;;;;;;;;;;;;;21.62;21.72;97614.91;4957011;29;1456;-73
2023/03/31 06:39:02;;;;;;;;;;;;;;;22.18;21.19;97611.41;4956658;29;1001;-73
2023/03/31 06:41:27;;;;;;;;;;;;;;;21.75;21.58;97607.16;4909079;29;1230;-73
2023/03/31 06:43:53;;;;;;;;;;;;;;;21.79;21.86;97599.34;4908746;29;1340;-73
2023/03/31 06:46:19;;;;;;;;;;;;;;;21.60;21.81;97606.06;4940606;29;1141;-73
2023/03/31 06:48:44;;;;;;;;;;;;;;;21.79;22.02;97599.34;4940485;29;929;-73
2023/03/31 06:51:10;;;;;;;;;;;;;;;21.93;21.70;97605.78;4940843;29;1981;-73
2023/03/31 06:53:36;;;;;;;;;;;;;;;22.04;21.26;97609.84;4940236;29;1032;-73
2023/03/31 06:56:02;;;;;;;;;;;;;;;21.68;21.79;97610.25;4956500;29;1137;-73
2023/03/31 06:58:27;;;;;;;;;;;;;;;21.83;21.71;97608.53;4956047;29;1101;-73
2023/03/31 07:00:53;;;;;;;;;;;;;;;21.65;21.98;97616.81;4956529;29;946;-73
2023/03/31 07:03:23;;;;;;;;;;;;;;;21.85;21.64;97617.34;4956078;29;1177;-73
2023/03/31 07:05:49;;;;;;;;;;;;;;;21.94;21.44;97615.88;4967666;28;1286;-74
2023/03/31 07:08:18;;;;;;;;;;;;;;;21.97;21.39;97618.59;4976847;28;1095;-73
2023/03/31 07:10:47;;;;;;;;;;;;;;;21.57;22.04;97612.66;4960857;28;1971;-73
2023/03/31 07:13:16;;;;;;;;;;;;;;;21.66;21.84;97618.41;4977705;28;991;-73
2023/03/31 07:15:42;;;;;;;;;;;;;;;21.62;22.24;97619.78;4960352;28;863;-73
2023/03/31 07:18:08;;;;;;;;;;;;;;;22.02;21.31;97611.53;4960370;28;1370;-73
2023/03/31 07:20:34;;;;;;;;;;;;;;;21.97;21.44;97598.75;4943373;28;1229;-73
2023/03/31 07:23:01;;;;;;;;;;;;;;;21.85;21.69;97600.34;4960349;28;961;-73
2023/03/31 07:25:27;;;;;;;;;;;;;;;22.14;21.43;97605.09;4976311;28;864;-72
2023/03/31 07:27:52;;;;;;;;;;;;;;;21.76;21.88;97603.13;4960035;28;1048;-73
2023/03/31 07:30:18;;;;;;;;;;;;;;;21.71;21.86;97602.88;4976405;28;1006;-72
2023/03/31 07:32:47;;;;;;;;;;;;;;;21.77;21.75;97599.03;4955165;29;1981;-73
2023/03/31 07:35:13;;;;;;;;;;;;;;;21.62;22.09;97597.91;4920339;29;985;-73
2023/03/31 07:37:42;;;;;;;;;;;;;;;21.91;21.70;97594.09;4936485;29;1640;-73
2023/03/31 07:40:08;;;;;;;;;;;;;;;21.77;22.09;97599.03;4920705;29;1036;-73
2023/03/31 07:42:34;;;;;;;;;;;;;;;21.85;21.71;97594.69;4917692;29;1327;-73
2023/03/31 07:45:00;;;;;;;;;;;;;;;21.73;21.84;97600.38;4917384;29;1098;-76
2023/03/31 07:47:26;;;;;;;;;;;;;;;21.70;22.03;97599.25;4917275;29;1010;-74
2023/03/31 07:49:52;;;;;;;;;;;;;;;21.53;22.18;97597.81;4918039;29;1118;-75
2023/03/31 07:52:18;;;;;;;;;;;;;;;21.59;22.06;97587.50;4917119;29;1997;-75
2023/03/31 07:54:44;;;;;;;;;;;;;;;21.55;22.29;97598.94;4901608;29;1415;-75
2023/03/31 07:57:10;;;;;;;;;;;;;;;21.26;22.83;97599.03;4917228;29;874;-75
2023/03/31 07:59:35;;;;;;;;;;;;;;;21.52;22.41;97597.03;4917212;29;954;-75
2023/03/31 08:02:01;;;;;;;;;;;;;;;22.03;21.75;97590.47;4917601;29;995;-75
2023/03/31 08:04:27;;;;;;;;;;;;;;;22.18;21.39;97594.41;4911503;29;1543;-75
2023/03/31 08:06:52;;;;;;;;;;;;;;;21.94;21.96;97590.38;4935318;29;961;-74
2023/03/31 08:09:18;;;;;;;;;;;;;;;21.66;22.10;97594.94;4938905;29;943;-75
2023/03/31 08:11:44;;;;;;;;;;;;;;;21.45;22.49;97587.94;4939438;29;1903;-74
2023/03/31 08:14:10;;;;;;;;;;;;;;;21.54;22.35;97596.56;4939252;29;936;-74
2023/03/31 08:16:35;;;;;;;;;;;;;;;21.63;22.17;97593.84;4939407;29;989;-74
2023/03/31 08:19:01;;;;;;;;;;;;;;;21.69;22.06;97583.50;4958914;28;979;-75
2023/03/31 08:21:27;;;;;;;;;;;;;;;21.63;22.31;97587.38;4962676;28;1140;-74
2023/03/31 08:23:56;;;;;;;;;;;;;;;21.48;22.43;97587.06;4962429;28;960;-75
2023/03/31 08:26:23;;;;;;;;;;;;;;;21.91;21.96;97585.63;4996181;28;868;-75
2023/03/31 08:28:48;;;;;;;;;;;;;;;21.99;21.75;97586.97;4978757;28;994;-75
2023/03/31 08:31:15;;;;;;;;;;;;;;;21.77;22.28;97593.38;4978779;28;1899;-75
2023/03/31 08:33:40;;;;;;;;;;;;;;;21.68;22.21;97589.63;4996176;28;896;-74
2023/03/31 08:36:07;;;;;;;;;;;;;;;21.54;22.60;97591.69;4977455;28;1028;-73
2023/03/31 08:38:37;;;;;;;;;;;;;;;21.63;22.27;97582.50;4979154;28;904;-75
2023/03/31 08:41:04;;;;;;;;;;;;;;;21.76;22.35;97563.47;4962934;28;1053;-74
2023/03/31 08:43:34;;;;;;;;;;;;;;;21.50;22.78;97567.56;4962735;28;1389;-75
2023/03/31 08:46:00;;;;;;;;;;;;;;;21.69;22.82;97569.34;4962454;28;893;-74
2023/03/31 08:48:33;;;;;;;;;;;;;;;22.22;22.04;97560.25;4978628;28;991;-76
2023/03/31 08:51:00;;;;;;;;;;;;;;;22.77;21.17;97550.09;4938631;29;1906;-75
2023/03/31 08:53:27;;;;;;;;;;;;;;;23.31;20.75;97553.69;4923463;29;956;-75
2023/03/31 08:55:53;;;;;;;;;;;;;;;23.60;20.17;97550.47;4923247;29;1003;-74
2023/03/31 08:58:36;;;;;;;;;;;;;;;23.71;20.01;97553.69;4939159;29;956;-77
2023/03/31 09:01:05;;;;;;;;;;;;;;;23.92;20.02;97547.06;4881968;29;1286;-75
2023/03/31 09:03:52;;;;;;;;;;;;;;;23.96;19.95;97546.16;4882218;29;1116;-75
2023/03/31 09:06:21;;;;;;;;;;;;;;;23.65;20.33;97555.56;4842021;29;1001;-75
2023/03/31 09:08:47;;;;;;;;;;;;;;;23.99;19.81;97546.00;4826834;29;939;-75
2023/03/31 09:11:24;;;;;;;;;;;;;;;23.89;20.17;97542.34;4826398;29;1899;-74
2023/03/31 09:13:52;;;;;;;;;;;;;;;24.11;19.73;97541.41;4826964;29;937;-75
2023/03/31 09:16:21;;;;;;;;;;;;;;;24.11;19.76;97533.69;4842085;29;976;-75
2023/03/31 09:18:47;;;;;;;;;;;;;;;23.96;19.74;97526.25;4826686;29;1033;-75
2023/03/31 09:21:15;;;;;;;;;;;;;;;24.04;20.07;97533.22;4826735;29;1290;-75
2023/03/31 09:24:02;;;;;;;;;;;;;;;23.97;19.79;97533.50;4841872;29;1042;-75
2023/03/31 09:26:34;;;;;;;;;;;;;;;24.04;19.88;97524.69;4826663;29;1268;-74
2023/03/31 09:28:59;;;;;;;;;;;;;;;24.19;19.77;97525.63;4853586;29;913;-75
2023/03/31 09:31:25;;;;;;;;;;;;;;;24.39;19.43;97523.09;4887938;29;1903;-72
2023/03/31 09:33:51;;;;;;;;;;;;;;;23.99;20.56;97522.47;4916433;29;1121;-68
2023/03/31 09:36:18;;;;;;;;;;;;;;;24.24;20.43;97519.28;4918047;29;1036;-73
2023/03/31 09:38:44;;;;;;;;;;;;;;;24.30;20.41;97520.25;4919740;29;1277;-75
2023/03/31 09:41:09;;;;;;;;;;;;;;;24.25;20.29;97512.38;4903819;29;1144;-74
2023/03/31 09:43:35;;;;;;;;;;;;;;;24.09;20.67;97518.38;4966223;28;973;-74
2023/03/31 09:46:01;;;;;;;;;;;;;;;24.50;20.01;97516.13;4998069;28;2094;-75
2023/03/31 09:48:27;;;;;;;;;;;;;;;24.36;20.34;97506.22;5017386;28;985;-75
2023/03/31 09:50:58;;;;;;;;;;;;;;;24.48;20.18;97510.16;5017685;28;1898;-74
2023/03/31 09:53:40;;;;;;;;;;;;;;;24.63;20.30;97508.22;5000530;28;959;-75
2023/03/31 09:56:10;;;;;;;;;;;;;;;24.47;20.46;97500.03;5016830;28;951;-74
2023/03/31 09:58:42;;;;;;;;;;;;;;;23.75;20.95;97497.50;4945190;28;1139;-74
2023/03/31 10:01:09;;;;;;;;;;;;;;;24.04;20.99;97497.06;4960773;28;935;-75
2023/03/31 10:03:43;;;;;;;;;;;;;;;23.87;21.34;97492.94;4960403;28;1278;-75
2023/03/31 10:06:08;;;;;;;;;;;;;;;23.82;21.58;97488.66;4960319;28;1062;-75
2023/03/31 10:08:52;;;;;;;;;;;;;;;23.94;21.68;97486.16;4960417;28;919;-68
2023/03/31 10:11:18;;;;;;;;;;;;;;;23.74;22.22;97490.25;4976372;28;1914;-75
2023/03/31 10:13:48;;;;;;;;;;;;;;;23.70;22.30;97489.63;4976251;28;943;-73
2023/03/31 10:16:33;;;;;;;;;;;;;;;23.57;23.22;97486.91;4953015;29;1406;-76
2023/03/31 10:19:12;;;;;;;;;;;;;;;23.32;23.85;97475.81;4956581;29;1079;-74
2023/03/31 10:21:38;;;;;;;;;;;;;;;23.41;23.64;97467.28;4940920;29;1030;-74
2023/03/31 10:24:10;;;;;;;;;;;;;;;23.26;23.47;97458.59;4941223;29;1028;-74
2023/03/31 10:26:35;;;;;;;;;;;;;;;23.04;24.09;97466.41;4940870;29;955;-74
2023/03/31 10:29:01;;;;;;;;;;;;;;;22.71;24.35;97449.09;4925130;29;1196;-74
2023/03/31 10:31:33;;;;;;;;;;;;;;;22.49;24.72;97449.13;4940933;29;1911;-73
2023/03/31 10:33:59;;;;;;;;;;;;;;;22.82;24.17;97450.22;4925041;29;1058;-73
2023/03/31 10:36:25;;;;;;;;;;;;;;;22.53;24.66;97438.44;4963730;28;1106;-74
2023/03/31 10:38:51;;;;;;;;;;;;;;;22.29;24.89;97436.09;5016243;28;1040;-74
2023/03/31 10:41:17;;;;;;;;;;;;;;;22.45;24.88;97431.47;5016130;28;1102;-74
2023/03/31 10:43:43;;;;;;;;;;;;;;;22.35;25.04;97428.59;5016380;28;1057;-74
2023/03/31 10:46:09;;;;;;;;;;;;;;;22.43;24.64;97425.47;5016215;28;1034;-74
2023/03/31 10:48:37;;;;;;;;;;;;;;;22.16;25.00;97426.88;4999588;28;912;-74
2023/03/31 10:51:16;;;;;;;;;;;;;;;21.99;25.56;97417.00;5016029;28;1906;-74
2023/03/31 10:53:48;;;;;;;;;;;;;;;22.10;24.97;97411.72;4999834;28;1298;-74
2023/03/31 10:56:14;;;;;;;;;;;;;;;21.90;25.30;97403.53;5014303;28;967;-74
2023/03/31 10:58:49;;;;;;;;;;;;;;;21.88;25.22;97399.63;5014661;28;983;-74
2023/03/31 11:01:19;;;;;;;;;;;;;;;22.01;24.94;97392.59;4998397;28;940;-74
2023/03/31 11:03:45;;;;;;;;;;;;;;;21.79;25.48;97408.81;4998096;28;1618;-75
2023/03/31 11:06:29;;;;;;;;;;;;;;;22.38;24.58;97397.72;4998210;28;1130;-74
2023/03/31 11:09:13;;;;;;;;;;;;;;;22.47;24.45;97394.94;5014869;28;890;-74
2023/03/31 11:11:57;;;;;;;;;;;;;;;22.23;24.70;97381.28;4959149;28;1969;-74
2023/03/31 11:14:40;;;;;;;;;;;;;;;22.04;24.97;97379.56;4959264;28;1083;-75
2023/03/31 11:17:29;;;;;;;;;;;;;;;21.88;25.21;97376.97;4974652;28;1092;-75
2023/03/31 11:20:08;;;;;;;;;;;;;;;22.02;25.02;97373.56;4892507;29;1300;-75
2023/03/31 11:22:36;;;;;;;;;;;;;;;22.17;24.92;97366.13;4904849;29;1399;-74
2023/03/31 11:25:05;;;;;;;;;;;;;;;22.23;24.84;97367.13;4891554;29;1256;-75
2023/03/31 11:27:35;;;;;;;;;;;;;;;22.12;25.04;97369.56;4908784;29;1268;-74
2023/03/31 11:30:01;;;;;;;;;;;;;;;21.99;25.23;97377.34;4892234;29;1233;-74
2023/03/31 11:32:45;;;;;;;;;;;;;;;22.08;24.96;97374.56;4912040;29;1990;-74
2023/03/31 11:35:15;;;;;;;;;;;;;;;21.72;25.13;97373.06;4917789;29;1059;-75
2023/03/31 11:37:48;;;;;;;;;;;;;;;22.34;24.72;97376.00;4901566;29;1039;-75
2023/03/31 11:40:17;;;;;;;;;;;;;;;22.09;24.87;97368.44;4917702;29;985;-74
2023/03/31 11:42:48;;;;;;;;;;;;;;;22.01;25.09;97363.47;4917172;29;1000;-75
2023/03/31 11:45:24;;;;;;;;;;;;;;;21.82;25.40;97369.06;4901708;29;1227;-74
2023/03/31 11:47:51;;;;;;;;;;;;;;;21.70;25.19;97367.06;4864338;29;970;-74
2023/03/31 11:50:26;;;;;;;;;;;;;;;21.85;24.95;97356.78;4879748;29;1002;-74
2023/03/31 11:52:56;;;;;;;;;;;;;;;22.11;24.92;97350.97;4879389;29;1911;-75
2023/03/31 11:55:22;;;;;;;;;;;;;;;22.40;24.35;97361.22;4861025;29;1144;-74
2023/03/31 11:58:08;;;;;;;;;;;;;;;22.44;24.69;97356.19;4909754;29;1033;-75
2023/03/31 12:00:46;;;;;;;;;;;;;;;22.61;24.01;97343.31;4827383;29;1192;-74
2023/03/31 12:03:14;;;;;;;;;;;;;;;22.17;24.43;97343.44;4812023;29;1255;-74
2023/03/31 12:05:43;;;;;;;;;;;;;;;21.78;25.05;97337.25;4812043;29;974;-75
2023/03/31 12:08:15;;;;;;;;;;;;;;;21.76;25.15;97331.25;4812191;29;1198;-74
2023/03/31 12:10:42;;;;;;;;;;;;;;;22.05;25.16;97330.16;4842412;29;969;-74
2023/03/31 12:13:14;;;;;;;;;;;;;;;22.34;24.78;97333.47;4790418;29;1916;-75
2023/03/31 12:15:40;;;;;;;;;;;;;;;23.00;23.97;97329.56;4806305;29;1159;-75
2023/03/31 12:18:13;;;;;;;;;;;;;;;22.41;24.56;97323.09;4790916;29;1023;-74
2023/03/31 12:20:46;;;;;;;;;;;;;;;22.19;24.70;97331.69;4821312;29;1107;-74
2023/03/31 12:23:16;;;;;;;;;;;;;;;22.18;24.62;97328.06;4805827;29;1051;-75
2023/03/31 12:25:51;;;;;;;;;;;;;;;21.90;25.10;97318.56;4813069;29;1454;-75
2023/03/31 12:28:17;;;;;;;;;;;;;;;22.07;25.33;97314.28;4842118;29;1343;-74
2023/03/31 12:30:43;;;;;;;;;;;;;;;22.17;24.96;97326.44;4842159;29;988;-74
2023/03/31 12:33:11;;;;;;;;;;;;;;;22.20;24.97;97322.69;4842358;29;1911;-74
2023/03/31 12:35:39;;;;;;;;;;;;;;;22.03;25.33;97321.34;4842254;29;1230;-75
2023/03/31 12:38:23;;;;;;;;;;;;;;;21.92;25.39;97313.25;4905220;29;1270;-74
2023/03/31 12:41:11;;;;;;;;;;;;;;;21.81;25.15;97305.19;4935562;29;991;-74
2023/03/31 12:43:45;;;;;;;;;;;;;;;22.07;24.98;97310.63;4943190;28;1034;-74
2023/03/31 12:46:30;;;;;;;;;;;;;;;22.16;24.96;97304.25;4971963;28;914;-74
2023/03/31 12:48:55;;;;;;;;;;;;;;;22.50;24.53;97300.47;4956923;29;958;-73
2023/03/31 12:51:33;;;;;;;;;;;;;;;22.24;24.81;97302.72;4971801;28;1902;-74
2023/03/31 12:54:19;;;;;;;;;;;;;;;21.96;25.05;97299.72;4956872;28;953;-74
2023/03/31 12:56:57;;;;;;;;;;;;;;;21.61;25.44;97290.59;4919431;29;996;-75
2023/03/31 12:59:32;;;;;;;;;;;;;;;21.68;25.57;97295.97;4935832;29;1039;-74
2023/03/31 13:02:07;;;;;;;;;;;;;;;22.39;24.52;97291.59;4935322;29;1004;-74
2023/03/31 13:04:32;;;;;;;;;;;;;;;22.56;24.29;97295.75;4930709;29;1248;-74
2023/03/31 13:06:58;;;;;;;;;;;;;;;22.31;24.94;97286.22;4922666;29;1239;-75
2023/03/31 13:09:24;;;;;;;;;;;;;;;22.27;24.98;97279.09;4939264;29;1271;-75